KMRY/MRY METAR and TAF weather

Enter ICAO airport designator
Station Type Date Time Source
KMRY METAR 2019/08/17 11:11 UTC NOAA

KMRY 171111Z AUTO 00000KT 7SM OVC005 15/13 A2986 RMK AO2 T01500128


Station Type Date Time Source
KMRY Decoded METAR 2019/08/17 11:11 UTC NOAA

Station name not available
Aug 17, 2019 - 07:11 AM EDT / 2019.08.17 1111 UTC
Wind: Calm:0
Visibility: 7 mile(s):0
Sky conditions: overcast
Temperature: 59.0 F (15.0 C)
Dew Point: 55.0 F (12.8 C)
Relative Humidity: 86%
Pressure (altimeter): 29.86 in. Hg (1011 hPa)
ob: KMRY 171111Z AUTO 00000KT 7SM OVC005 15/13 A2986 RMK AO2 T01500128
cycle: 11

Station Type Date Time Source
KMRY TAF 2019/08/17 06:22 UTC NOAA

TAF KMRY 170520Z 1706/1806 21004KT 5SM BR OVC005
FM171700 25006KT P6SM SCT010
FM171900 25010KT P6SM SKC
FM180400 24006KT P6SM BKN008

Example: see airport list